Strona główna
METAR-TAF:

METAR-TAF

Lotnisko :

Port lotniczy Córdoba

Córdoba, Argentyna

Szerokość geograficzna: 31-19S, Długość geograficzna: 064-13W, wysokość: 484 m

Aktualna obserwacja pogody

Raport powstał 26 minut temu, godzina 07:00 UTC
Cisza
Temperatura 7°C
Wilgotność 81%
Ciśnienie 1017 hPa
Widzialność 10 km lub więcej
Brak chmur poniżej 1500 m i brak chmur cumulonimbus

METAR: SACO 200700Z 00000KT CAVOK 07/04 Q1017 NOSIG

czas: 04:26 (07:26 UTC)

Prognoza

Raport powstał 2 godziny i 26 minut temu, godzina 05:00 UTC
Prognoza ważna od 20 godzina 06 UTC do 21 godzina 06 UTC
Wiatr 5 kt od zachód
Widzialność 10 km lub więcej
Brak chmur poniżej 1500 m i brak chmur cumulonimbus
Stopniowe zmiany
od 20 godzina 13 UTC do 20 godzina 16 UTC
Wiatr 10 kt od północny wschód

TAF: SACO 200500Z 2006/2106 27005KT CAVOK TX22/2018Z TN06/2010Z BECMG 2013/2016 05010KT

Obserwacja i prognoza pogody dla ponad 4000 lotnisk (raport METAR i TAF).

Dostępne stacje oznaczono żółtymi i czerwonymi punktami na mapie.

Najedź kursorem aby zobaczyć nazwę stacji.

Kliknij aby zobaczyć obserwacje i prognozy pogody.

Aby zmienić mapę: kliknij na zielony przycisk z czarnym krzyżykiem, aby powiększyć; na zielony przycisk z myślnikiem, aby pomniejszyć; na zielone strzałki, aby przejść do map sąsiednich.


METAR-TAF: